createdAt,value
2018-08-17T00:01:26.965Z,2.57
2018-08-17T00:03:59.284Z,2.70
2018-08-17T00:06:28.489Z,2.23
2018-08-17T00:08:57.804Z,2.43
2018-08-17T00:11:27.092Z,2.80
2018-08-17T00:13:56.192Z,3.00
2018-08-17T00:16:25.184Z,2.70
2018-08-17T00:18:54.380Z,2.77
2018-08-17T00:21:23.291Z,2.83
2018-08-17T00:23:52.624Z,3.10
2018-08-17T00:26:21.739Z,2.90
2018-08-17T00:28:51.072Z,3.13
2018-08-17T00:31:20.315Z,2.50
2018-08-17T00:33:49.462Z,2.90
2018-08-17T00:36:18.608Z,3.07
2018-08-17T00:38:48.035Z,2.80
2018-08-17T00:41:17.122Z,3.73
2018-08-17T00:43:46.135Z,2.60
2018-08-17T00:46:15.067Z,2.90
2018-08-17T00:48:44.283Z,2.97
2018-08-17T00:51:13.420Z,2.77
2018-08-17T00:53:42.767Z,2.67
2018-08-17T00:56:11.819Z,2.60
2018-08-17T00:58:41.265Z,3.30
2018-08-17T01:01:10.338Z,2.67
2018-08-17T01:03:39.808Z,2.70
2018-08-17T01:06:08.841Z,2.63
2018-08-17T01:08:37.835Z,2.57
2018-08-17T01:11:08.017Z,2.73
2018-08-17T01:13:36.910Z,2.97
2018-08-17T01:16:06.143Z,2.40
2018-08-17T01:18:35.458Z,2.50
2018-08-17T01:21:04.552Z,2.40
2018-08-17T01:23:34.079Z,3.10
2018-08-17T01:26:03.060Z,2.53
2018-08-17T01:28:32.222Z,3.20
2018-08-17T01:31:01.301Z,2.87
2018-08-17T01:33:30.659Z,2.40
2018-08-17T01:35:59.844Z,2.77
2018-08-17T01:38:29.488Z,3.10
2018-08-17T01:40:58.858Z,2.77
2018-08-17T01:43:28.150Z,2.50
2018-08-17T01:45:57.362Z,2.70
2018-08-17T01:48:26.700Z,2.77
2018-08-17T01:50:56.000Z,2.73
2018-08-17T01:53:25.067Z,2.60
2018-08-17T01:55:54.530Z,2.67
2018-08-17T01:58:23.716Z,2.97
2018-08-17T02:00:52.902Z,3.10
2018-08-17T02:03:22.305Z,2.97
2018-08-17T02:05:51.349Z,3.23
2018-08-17T02:08:20.484Z,2.70
2018-08-17T02:10:49.583Z,2.97
2018-08-17T02:13:18.946Z,3.50
2018-08-17T02:15:48.626Z,3.23
2018-08-17T02:18:18.553Z,2.90
2018-08-17T02:20:47.878Z,3.00
2018-08-17T02:23:17.578Z,3.50
2018-08-17T02:25:47.451Z,3.10
2018-08-17T02:28:17.222Z,3.00
2018-08-17T02:30:46.302Z,3.13
2018-08-17T02:33:15.358Z,3.03
2018-08-17T02:35:44.458Z,3.17
2018-08-17T02:38:13.891Z,2.97
2018-08-17T02:40:43.346Z,3.10
2018-08-17T02:43:12.749Z,2.90
2018-08-17T02:45:41.798Z,3.27
2018-08-17T02:48:10.794Z,3.27
2018-08-17T02:50:39.722Z,3.00
2018-08-17T02:53:09.059Z,2.90
2018-08-17T02:55:38.248Z,2.90
2018-08-17T02:58:07.367Z,2.90
2018-08-17T03:00:36.440Z,3.10
2018-08-17T03:03:06.015Z,2.93
2018-08-17T03:05:35.030Z,3.00
2018-08-17T03:08:04.101Z,3.23
2018-08-17T03:10:33.094Z,3.77
2018-08-17T03:13:02.154Z,4.30
2018-08-17T03:15:31.480Z,3.40
2018-08-17T03:18:00.517Z,3.30
2018-08-17T03:20:29.962Z,4.73
2018-08-17T03:22:58.991Z,3.83
2018-08-17T03:25:27.956Z,4.07
2018-08-17T03:27:57.155Z,3.93
2018-08-17T03:30:27.965Z,4.00
2018-08-17T03:32:57.289Z,3.70
2018-08-17T03:35:26.506Z,3.80
2018-08-17T03:37:55.813Z,4.30
2018-08-17T03:40:24.985Z,4.00
2018-08-17T03:42:54.881Z,4.40
2018-08-17T03:45:24.456Z,4.20
2018-08-17T03:47:53.512Z,3.60
2018-08-17T03:50:22.802Z,4.03
2018-08-17T03:52:51.817Z,4.03
2018-08-17T03:55:21.505Z,3.73
2018-08-17T03:57:50.455Z,4.87
2018-08-17T04:00:19.525Z,3.80
2018-08-17T04:02:48.667Z,4.33
2018-08-17T04:05:17.777Z,4.90
2018-08-17T04:07:47.118Z,4.83
2018-08-17T04:10:16.135Z,4.87
2018-08-17T04:12:45.314Z,4.23
2018-08-17T04:15:14.572Z,4.97
2018-08-17T04:17:43.711Z,4.40
2018-08-17T04:20:13.400Z,5.33
2018-08-17T04:22:42.705Z,3.73
2018-08-17T04:25:11.708Z,3.73
2018-08-17T04:27:40.743Z,4.63
2018-08-17T04:30:10.252Z,4.03
2018-08-17T04:32:39.550Z,4.63
2018-08-17T04:35:08.660Z,4.30
2018-08-17T04:37:37.992Z,4.20
2018-08-17T04:40:07.089Z,4.27
2018-08-17T04:42:36.287Z,4.50
2018-08-17T04:45:06.251Z,4.57
2018-08-17T04:47:35.310Z,4.67
2018-08-17T04:50:04.540Z,4.37
2018-08-17T04:52:33.650Z,4.57
2018-08-17T04:55:02.778Z,4.53
2018-08-17T04:57:31.618Z,5.70
2018-08-17T05:00:00.786Z,5.40
2018-08-17T05:02:29.878Z,5.60
2018-08-17T05:04:59.667Z,5.37
2018-08-17T05:07:28.739Z,4.60
2018-08-17T05:09:57.702Z,5.27
2018-08-17T05:12:26.720Z,5.50
2018-08-17T05:14:55.708Z,5.63
2018-08-17T05:17:24.738Z,4.80
2018-08-17T05:19:53.805Z,5.10
2018-08-17T05:22:22.693Z,4.73
2018-08-17T05:24:51.772Z,5.90
2018-08-17T05:27:21.059Z,5.37
2018-08-17T05:29:50.151Z,5.20
2018-08-17T05:32:19.235Z,5.50
2018-08-17T05:34:48.220Z,6.00
2018-08-17T05:37:17.382Z,5.80
2018-08-17T05:39:46.746Z,6.77
2018-08-17T05:42:15.796Z,6.60
2018-08-17T05:44:45.447Z,6.00
2018-08-17T05:47:14.479Z,5.93
2018-08-17T05:49:43.786Z,6.10
2018-08-17T05:52:13.510Z,5.60
2018-08-17T05:54:42.513Z,6.37
2018-08-17T05:57:11.866Z,6.17
2018-08-17T05:59:40.972Z,5.90
2018-08-17T06:02:10.232Z,6.10
2018-08-17T06:04:39.274Z,6.13
2018-08-17T06:07:08.585Z,5.90
2018-08-17T06:09:37.552Z,7.30
2018-08-17T06:12:06.532Z,9.67
2018-08-17T06:14:36.536Z,6.27
2018-08-17T06:17:05.464Z,6.53
2018-08-17T06:19:34.468Z,7.03
2018-08-17T06:22:03.618Z,6.20
2018-08-17T06:24:33.312Z,5.80
2018-08-17T06:27:02.481Z,5.53
2018-08-17T06:29:31.603Z,5.70
2018-08-17T06:32:00.697Z,6.30
2018-08-17T06:34:29.769Z,5.83
2018-08-17T06:36:58.724Z,5.97
2018-08-17T06:39:28.358Z,5.50
2018-08-17T06:41:57.309Z,5.00
2018-08-17T06:44:26.827Z,5.40
2018-08-17T06:46:55.883Z,5.73
2018-08-17T06:49:25.487Z,5.03
2018-08-17T06:51:54.941Z,4.87
2018-08-17T06:54:24.180Z,4.07
2018-08-17T06:56:54.211Z,5.03
2018-08-17T06:59:23.683Z,5.37
2018-08-17T07:01:52.893Z,5.13
2018-08-17T07:04:21.871Z,4.73
2018-08-17T07:06:51.047Z,5.50
2018-08-17T07:09:20.388Z,4.60
2018-08-17T07:11:49.572Z,5.20
2018-08-17T07:14:18.644Z,4.77
2018-08-17T07:16:47.837Z,4.90
2018-08-17T07:19:17.118Z,4.93
2018-08-17T07:21:46.229Z,5.03
2018-08-17T07:24:15.993Z,4.40
2018-08-17T07:26:45.462Z,5.10
2018-08-17T07:29:14.603Z,4.73
2018-08-17T07:31:44.458Z,5.60
2018-08-17T07:34:13.454Z,5.20
2018-08-17T07:36:42.662Z,5.50
2018-08-17T07:39:11.836Z,4.80
2018-08-17T07:41:41.167Z,4.93
2018-08-17T07:44:10.347Z,4.30
2018-08-17T07:46:40.045Z,4.87
2018-08-17T07:49:09.279Z,5.40
2018-08-17T07:51:38.807Z,4.90
2018-08-17T07:54:07.876Z,4.80
2018-08-17T07:56:36.957Z,5.00
2018-08-17T07:59:05.893Z,5.97
2018-08-17T08:01:35.175Z,5.60
2018-08-17T08:04:04.414Z,5.60
2018-08-17T08:06:34.533Z,5.33
2018-08-17T08:09:04.347Z,4.97
2018-08-17T08:11:33.575Z,5.70
2018-08-17T08:14:02.760Z,6.07
2018-08-17T08:16:32.073Z,5.77
2018-08-17T08:19:01.167Z,6.60
2018-08-17T08:21:30.438Z,7.50
2018-08-17T08:23:59.866Z,5.63
2018-08-17T08:26:29.085Z,6.97
2018-08-17T08:28:58.343Z,6.37
2018-08-17T08:31:27.361Z,6.10
2018-08-17T08:33:56.401Z,6.13
2018-08-17T08:36:25.790Z,5.53
2018-08-17T08:38:54.889Z,5.93
2018-08-17T08:41:23.958Z,5.20
2018-08-17T08:43:52.967Z,4.43
2018-08-17T08:46:21.985Z,4.70
2018-08-17T08:48:51.058Z,4.30
2018-08-17T08:51:20.167Z,4.03
2018-08-17T08:53:49.669Z,4.93
2018-08-17T08:56:18.942Z,3.73
2018-08-17T08:58:47.926Z,4.10
2018-08-17T09:01:16.919Z,4.10
2018-08-17T09:03:45.938Z,4.63
2018-08-17T09:06:14.993Z,3.07
2018-08-17T09:08:44.401Z,3.57
2018-08-17T09:11:13.371Z,2.83
2018-08-17T09:13:42.484Z,3.23
2018-08-17T09:16:11.893Z,3.40
2018-08-17T09:18:40.852Z,2.90
2018-08-17T09:21:09.843Z,3.03
2018-08-17T09:23:39.069Z,3.37
2018-08-17T09:26:08.338Z,2.67
2018-08-17T09:28:37.403Z,2.37
2018-08-17T09:31:06.738Z,2.60
2018-08-17T09:33:36.282Z,2.30
2018-08-17T09:36:05.425Z,2.30
2018-08-17T09:38:34.496Z,1.97
2018-08-17T09:41:03.492Z,2.13
2018-08-17T09:43:32.576Z,2.30
2018-08-17T09:46:01.585Z,2.17
2018-08-17T09:48:31.198Z,1.80
2018-08-17T09:51:01.162Z,2.40
2018-08-17T09:53:30.313Z,2.10
2018-08-17T09:55:59.455Z,2.30
2018-08-17T09:58:28.643Z,2.10
2018-08-17T10:01:02.886Z,1.67
2018-08-17T10:10:43.446Z,1.92
2018-08-17T10:13:12.533Z,1.93
2018-08-17T10:15:42.071Z,1.90
2018-08-17T10:18:11.327Z,1.30
2018-08-17T10:20:41.079Z,2.07
2018-08-17T10:23:15.839Z,1.70
2018-08-17T10:25:44.929Z,1.80
2018-08-17T10:28:14.008Z,1.90
2018-08-17T10:30:43.001Z,1.97
2018-08-17T10:33:12.047Z,1.70
2018-08-17T10:35:41.375Z,1.90
2018-08-17T10:38:10.655Z,1.70
2018-08-17T10:40:40.123Z,1.60
2018-08-17T10:43:09.162Z,2.10
2018-08-17T10:45:38.325Z,2.20
2018-08-17T10:48:07.468Z,1.90
2018-08-17T10:50:36.622Z,1.60
2018-08-17T10:53:06.004Z,2.33
2018-08-17T10:55:41.420Z,2.00
2018-08-17T10:58:17.046Z,1.93
2018-08-17T11:00:46.259Z,1.70
2018-08-17T11:03:15.642Z,1.47
2018-08-17T11:05:45.312Z,1.50
2018-08-17T11:08:14.353Z,1.70
2018-08-17T11:10:43.579Z,2.10
2018-08-17T11:13:12.748Z,2.00
2018-08-17T11:15:41.787Z,2.10
2018-08-17T11:18:10.933Z,2.00
2018-08-17T11:20:41.452Z,1.70
2018-08-17T11:23:10.678Z,1.70
2018-08-17T11:25:39.764Z,1.77
2018-08-17T11:28:08.900Z,1.60
2018-08-17T11:30:37.972Z,2.17
2018-08-17T11:33:07.565Z,1.87
2018-08-17T11:35:36.645Z,1.60
2018-08-17T11:38:06.219Z,2.07
2018-08-17T11:40:35.398Z,1.80
2018-08-17T11:43:04.443Z,2.13
2018-08-17T11:45:33.390Z,1.97
2018-08-17T11:48:02.339Z,1.90
2018-08-17T11:50:31.452Z,2.10
2018-08-17T11:53:00.574Z,1.80
2018-08-17T11:55:31.125Z,1.70
2018-08-17T11:58:00.078Z,1.73
2018-08-17T12:00:33.849Z,1.83
2018-08-17T12:03:02.795Z,1.63
2018-08-17T12:05:31.955Z,1.80
2018-08-17T12:08:00.855Z,2.00
2018-08-17T12:10:30.259Z,2.00
2018-08-17T12:13:05.304Z,2.20
2018-08-17T12:15:42.190Z,2.17
2018-08-17T12:18:12.035Z,2.33
2018-08-17T12:20:41.206Z,2.07
2018-08-17T12:23:10.128Z,2.00
2018-08-17T12:25:48.819Z,2.00
2018-08-17T12:28:18.083Z,2.47
2018-08-17T12:30:47.010Z,2.23
2018-08-17T12:33:15.999Z,1.70
2018-08-17T12:35:45.277Z,1.53
2018-08-17T12:38:17.343Z,1.90
2018-08-17T12:40:50.792Z,1.70
2018-08-17T12:43:21.526Z,2.10
2018-08-17T12:45:50.523Z,1.67
2018-08-17T12:48:19.401Z,2.03
2018-08-17T12:50:48.725Z,2.00
2018-08-17T12:53:17.804Z,2.30
2018-08-17T12:55:46.763Z,1.63
2018-08-17T12:58:16.031Z,2.10
2018-08-17T13:00:45.475Z,1.80
2018-08-17T13:03:14.550Z,1.87
2018-08-17T13:05:43.655Z,2.10
2018-08-17T13:08:12.873Z,1.90
2018-08-17T13:10:42.280Z,1.73
2018-08-17T13:13:11.836Z,2.00
2018-08-17T13:15:45.051Z,1.70
2018-08-17T13:18:19.314Z,2.10
2018-08-17T13:20:48.439Z,1.70
2018-08-17T13:23:17.566Z,2.10
2018-08-17T13:25:46.633Z,2.00
2018-08-17T13:28:15.857Z,1.60
2018-08-17T13:30:45.269Z,1.90
2018-08-17T13:33:14.253Z,2.03
2018-08-17T13:35:43.809Z,1.57
2018-08-17T13:38:12.755Z,2.20
2018-08-17T13:40:42.216Z,1.97
2018-08-17T13:43:11.561Z,2.20
2018-08-17T13:45:40.854Z,1.90
2018-08-17T13:48:10.760Z,1.93
2018-08-17T13:50:39.762Z,2.00
2018-08-17T13:53:09.082Z,2.07
2018-08-17T13:55:38.047Z,1.67
2018-08-17T13:58:07.307Z,1.87
2018-08-17T14:00:36.517Z,2.47
2018-08-17T14:03:06.079Z,7.97
2018-08-17T14:05:34.968Z,4.07
2018-08-17T14:08:04.056Z,7.13
2018-08-17T14:10:33.165Z,1.97
2018-08-17T14:13:02.252Z,2.10
2018-08-17T14:15:31.251Z,1.90
2018-08-17T14:18:00.396Z,2.00
2018-08-17T14:20:29.658Z,1.87
2018-08-17T14:22:58.708Z,1.83
2018-08-17T14:25:28.419Z,1.43
2018-08-17T14:27:57.656Z,1.40
2018-08-17T14:30:26.674Z,2.10
2018-08-17T14:32:55.818Z,2.80
2018-08-17T14:35:25.037Z,2.20
2018-08-17T14:37:54.254Z,2.03
2018-08-17T14:40:24.270Z,1.60
2018-08-17T14:42:53.444Z,1.93
2018-08-17T14:45:22.414Z,1.90
2018-08-17T14:47:51.832Z,1.80
2018-08-17T14:50:20.937Z,2.67
2018-08-17T14:52:50.155Z,1.87
2018-08-17T14:55:19.147Z,1.80
2018-08-17T14:57:48.184Z,1.77
2018-08-17T15:00:17.212Z,2.13
2018-08-17T15:02:46.294Z,1.70
2018-08-17T15:05:15.973Z,1.90
2018-08-17T15:07:45.273Z,1.83
2018-08-17T15:10:15.205Z,1.87
2018-08-17T15:12:44.345Z,2.30
2018-08-17T15:15:14.179Z,1.93
2018-08-17T15:17:43.311Z,2.03
2018-08-17T15:20:13.230Z,1.63
2018-08-17T15:22:42.794Z,1.60
2018-08-17T15:25:11.794Z,1.97
2018-08-17T15:27:40.935Z,1.70
2018-08-17T15:30:11.232Z,1.73
2018-08-17T15:32:41.037Z,2.03
2018-08-17T15:35:10.733Z,1.80
2018-08-17T15:37:40.190Z,2.20
2018-08-17T15:40:11.232Z,1.70
2018-08-17T15:42:40.683Z,2.20
2018-08-17T15:45:10.640Z,2.03
2018-08-17T15:47:39.629Z,1.60
2018-08-17T15:50:15.823Z,2.10
2018-08-17T15:52:45.172Z,2.40
2018-08-17T15:55:14.472Z,1.87
2018-08-17T15:57:43.796Z,2.00
2018-08-17T16:00:18.016Z,1.53
2018-08-17T16:02:47.309Z,2.63
2018-08-17T16:05:16.286Z,2.00
2018-08-17T16:07:45.420Z,1.80
2018-08-17T16:10:15.706Z,2.10
2018-08-17T16:12:45.500Z,2.10
2018-08-17T16:15:14.453Z,1.93
2018-08-17T16:17:43.552Z,2.10
2018-08-17T16:20:13.215Z,1.80
2018-08-17T16:22:43.150Z,1.83
2018-08-17T16:25:13.198Z,1.87
2018-08-17T16:27:42.791Z,1.70
2018-08-17T16:30:13.486Z,1.70
2018-08-17T16:32:43.418Z,2.20
2018-08-17T16:35:13.268Z,1.63
2018-08-17T16:37:43.315Z,1.60
2018-08-17T16:40:12.278Z,1.73
2018-08-17T16:42:41.267Z,1.90
2018-08-17T16:45:10.592Z,1.80
2018-08-17T16:47:39.848Z,1.50
2018-08-17T16:50:10.236Z,2.00
2018-08-17T16:52:39.184Z,2.13
2018-08-17T16:55:09.047Z,2.10
2018-08-17T16:57:38.520Z,2.10
2018-08-17T17:00:09.205Z,1.90
2018-08-17T17:02:38.512Z,1.90
2018-08-17T17:05:08.067Z,1.67
2018-08-17T17:07:37.357Z,1.60
2018-08-17T17:10:08.431Z,1.83
2018-08-17T17:12:37.427Z,1.80
2018-08-17T17:15:22.967Z,2.30
2018-08-17T17:17:58.438Z,1.70
2018-08-17T17:20:32.329Z,2.07
2018-08-17T17:23:01.424Z,1.90
2018-08-17T17:25:30.655Z,2.00
2018-08-17T17:28:00.152Z,1.60
2018-08-17T17:30:39.279Z,2.03
2018-08-17T17:33:08.757Z,1.77
2018-08-17T17:35:38.916Z,2.00
2018-08-17T17:38:08.757Z,2.00
2018-08-17T17:40:37.692Z,1.60
2018-08-17T17:43:07.041Z,1.73
2018-08-17T17:45:37.067Z,1.60
2018-08-17T17:48:06.030Z,1.70
2018-08-17T17:50:35.054Z,1.63
2018-08-17T17:53:04.369Z,2.00
2018-08-17T17:55:40.803Z,2.60
2018-08-17T17:58:10.170Z,1.70
2018-08-17T18:00:39.880Z,1.93
2018-08-17T18:03:09.191Z,2.53
2018-08-17T18:05:38.245Z,1.90
2018-08-17T18:08:12.474Z,1.77
2018-08-17T18:10:41.589Z,2.30
2018-08-17T18:13:10.959Z,1.87
2018-08-17T18:15:40.254Z,2.30
2018-08-17T18:18:09.648Z,2.10
2018-08-17T18:20:38.619Z,1.83
2018-08-17T18:23:08.603Z,1.90
2018-08-17T18:25:37.555Z,2.20
2018-08-17T18:28:06.691Z,2.00
2018-08-17T18:30:35.850Z,3.03
2018-08-17T18:33:05.712Z,2.10
2018-08-17T18:35:34.913Z,2.00
2018-08-17T18:38:04.928Z,2.13
2018-08-17T18:40:34.148Z,2.30
2018-08-17T18:43:03.364Z,2.00
2018-08-17T18:45:32.632Z,2.37
2018-08-17T18:48:02.170Z,2.77
2018-08-17T18:50:31.627Z,2.63
2018-08-17T18:53:00.824Z,2.40
2018-08-17T18:55:29.977Z,2.13
2018-08-17T18:57:59.016Z,2.43
2018-08-17T19:00:28.222Z,2.73
2018-08-17T19:02:57.692Z,2.83
2018-08-17T19:05:26.932Z,2.63
2018-08-17T19:07:55.934Z,3.10
2018-08-17T19:10:25.055Z,2.40
2018-08-17T19:12:54.778Z,2.60
2018-08-17T19:15:23.718Z,2.87
2018-08-17T19:17:52.869Z,2.90
2018-08-17T19:20:22.013Z,2.57
2018-08-17T19:22:50.987Z,2.63
2018-08-17T19:25:20.140Z,3.10
2018-08-17T19:27:49.201Z,2.90
2018-08-17T19:30:25.358Z,3.20
2018-08-17T19:32:55.863Z,3.30
2018-08-17T19:35:24.987Z,3.30
2018-08-17T19:37:54.183Z,3.13
2018-08-17T19:40:23.645Z,2.90
2018-08-17T19:42:52.606Z,3.43
2018-08-17T19:45:23.020Z,2.40
2018-08-17T19:47:51.952Z,2.90
2018-08-17T19:50:21.129Z,2.57
2018-08-17T19:52:50.433Z,3.00
2018-08-17T19:55:19.647Z,2.77
2018-08-17T19:57:48.967Z,2.83
2018-08-17T20:00:18.177Z,2.90
2018-08-17T20:02:47.240Z,2.40
2018-08-17T20:05:16.309Z,2.37
2018-08-17T20:07:45.529Z,2.40
2018-08-17T20:10:15.061Z,2.70
2018-08-17T20:12:44.462Z,3.30
2018-08-17T20:15:13.443Z,2.40
2018-08-17T20:17:49.292Z,2.90
2018-08-17T20:20:18.546Z,2.63
2018-08-17T20:22:47.929Z,3.20
2018-08-17T20:25:18.256Z,2.50
2018-08-17T20:27:47.655Z,2.90
2018-08-17T20:30:22.551Z,2.60
2018-08-17T20:32:51.549Z,3.10
2018-08-17T20:35:20.680Z,3.20
2018-08-17T20:37:52.131Z,3.10
2018-08-17T20:40:21.609Z,4.17
2018-08-17T20:42:50.719Z,3.37
2018-08-17T20:45:20.240Z,3.80
2018-08-17T20:47:49.623Z,4.30
2018-08-17T20:50:19.657Z,3.80
2018-08-17T20:52:53.532Z,3.73
2018-08-17T20:55:22.869Z,3.67
2018-08-17T20:57:53.801Z,3.60
2018-08-17T21:00:24.224Z,4.00
2018-08-17T21:02:53.953Z,4.13
2018-08-17T21:05:23.886Z,4.00
2018-08-17T21:07:53.326Z,4.03
2018-08-17T21:10:22.400Z,4.60
2018-08-17T21:12:51.506Z,4.80
2018-08-17T21:15:20.993Z,4.03
2018-08-17T21:17:50.276Z,4.00
2018-08-17T21:20:19.595Z,4.23
2018-08-17T21:22:48.922Z,4.40
2018-08-17T21:25:18.231Z,4.03
2018-08-17T21:27:47.255Z,5.03
2018-08-17T21:30:16.605Z,4.90
2018-08-17T21:32:45.709Z,4.67
2018-08-17T21:35:15.305Z,4.40
2018-08-17T21:37:44.529Z,3.63
2018-08-17T21:40:18.503Z,4.07
2018-08-17T21:42:48.427Z,3.80
2018-08-17T21:45:17.328Z,4.10
2018-08-17T21:47:46.514Z,3.70
2018-08-17T21:50:16.534Z,3.80
2018-08-17T21:52:46.118Z,3.93
2018-08-17T21:55:15.825Z,4.17
2018-08-17T21:57:45.123Z,4.67
2018-08-17T22:00:22.823Z,4.77
2018-08-17T22:02:51.969Z,4.63
2018-08-17T22:05:26.116Z,4.50
2018-08-17T22:07:55.405Z,5.40
2018-08-17T22:10:25.305Z,4.00
2018-08-17T22:12:54.230Z,4.37
2018-08-17T22:15:26.103Z,4.30
2018-08-17T22:17:55.561Z,4.30
2018-08-17T22:20:24.799Z,4.13
2018-08-17T22:22:53.921Z,3.80
2018-08-17T22:25:22.839Z,4.10
2018-08-17T22:27:52.157Z,3.83
2018-08-17T22:30:23.272Z,4.07
2018-08-17T22:32:52.743Z,3.90
2018-08-17T22:35:21.845Z,4.20
2018-08-17T22:37:51.131Z,4.00
2018-08-17T22:40:20.131Z,3.80
2018-08-17T22:42:50.360Z,3.53
2018-08-17T22:45:19.484Z,4.10
2018-08-17T22:47:48.605Z,3.57
2018-08-17T22:50:18.149Z,4.20
2018-08-17T22:52:47.391Z,3.90
2018-08-17T22:55:16.375Z,3.20
2018-08-17T22:57:45.656Z,3.73
2018-08-17T23:00:24.465Z,5.10
2018-08-17T23:02:54.867Z,4.40
2018-08-17T23:05:25.370Z,3.93
2018-08-17T23:07:55.237Z,4.20
2018-08-17T23:10:25.459Z,3.93
2018-08-17T23:12:55.133Z,3.37
2018-08-17T23:15:24.129Z,4.07
2018-08-17T23:18:00.696Z,3.60
2018-08-17T23:20:35.458Z,3.70
2018-08-17T23:23:05.570Z,4.17
2018-08-17T23:25:34.656Z,3.97
2018-08-17T23:28:04.751Z,4.00
2018-08-17T23:30:33.683Z,3.67
2018-08-17T23:33:02.760Z,4.60
2018-08-17T23:35:31.964Z,4.43
2018-08-17T23:38:01.028Z,4.43
2018-08-17T23:40:30.478Z,5.20
2018-08-17T23:43:00.005Z,4.83
2018-08-17T23:45:29.261Z,4.87
2018-08-17T23:47:58.319Z,4.83
2018-08-17T23:50:27.478Z,5.00
2018-08-17T23:52:56.627Z,4.37
2018-08-17T23:55:25.516Z,4.23
2018-08-17T23:57:54.656Z,4.50
